createdAt,value
2022-10-20T00:00:54.749Z,95.79
2022-10-20T00:03:21.465Z,95.80
2022-10-20T00:05:48.087Z,95.69
2022-10-20T00:08:14.724Z,95.78
2022-10-20T00:10:41.344Z,95.70
2022-10-20T00:13:08.183Z,95.60
2022-10-20T00:15:35.015Z,95.51
2022-10-20T00:18:01.638Z,95.24
2022-10-20T00:20:28.230Z,95.02
2022-10-20T00:22:54.771Z,94.99
2022-10-20T00:25:21.615Z,94.72
2022-10-20T00:27:48.261Z,94.51
2022-10-20T00:30:14.839Z,94.65
2022-10-20T00:32:41.429Z,94.81
2022-10-20T00:35:08.221Z,94.78
2022-10-20T00:37:34.846Z,94.40
2022-10-20T00:40:01.450Z,94.39
2022-10-20T00:42:28.107Z,94.50
2022-10-20T00:44:54.756Z,94.64
2022-10-20T00:47:40.265Z,94.40
2022-10-20T00:50:12.668Z,94.17
2022-10-20T00:52:39.978Z,94.18
2022-10-20T00:55:07.624Z,94.12
2022-10-20T00:57:34.894Z,93.86
2022-10-20T01:00:02.097Z,93.92
2022-10-20T01:02:30.065Z,93.66
2022-10-20T01:04:56.640Z,93.41
2022-10-20T01:07:23.245Z,93.13
2022-10-20T01:09:50.191Z,92.89
2022-10-20T01:12:25.187Z,92.86
2022-10-20T01:15:12.011Z,93.15
2022-10-20T01:17:38.760Z,92.93
2022-10-20T01:20:18.990Z,92.98
2022-10-20T01:22:48.370Z,92.93
2022-10-20T01:25:33.212Z,92.94
2022-10-20T01:28:04.099Z,93.22
2022-10-20T01:30:32.898Z,92.99
2022-10-20T01:33:02.330Z,93.06
2022-10-20T01:35:36.376Z,93.12
2022-10-20T01:38:03.079Z,93.34
2022-10-20T01:40:36.570Z,93.44
2022-10-20T01:43:06.398Z,93.02
2022-10-20T01:45:34.951Z,92.90
2022-10-20T01:48:02.864Z,93.04
2022-10-20T01:50:29.629Z,93.03
2022-10-20T01:53:00.264Z,93.04
2022-10-20T01:55:26.866Z,93.24
2022-10-20T01:58:05.424Z,93.13
2022-10-20T02:00:34.720Z,93.33
2022-10-20T02:03:04.037Z,93.37
2022-10-20T02:05:33.800Z,93.36
2022-10-20T02:08:07.382Z,93.43
2022-10-20T02:10:39.245Z,93.44
2022-10-20T02:13:07.182Z,93.79
2022-10-20T02:15:37.024Z,93.67
2022-10-20T02:18:06.527Z,93.74
2022-10-20T02:20:33.300Z,93.89
2022-10-20T02:23:00.725Z,93.68
2022-10-20T02:25:28.233Z,93.66
2022-10-20T02:27:55.533Z,93.28
2022-10-20T02:30:22.410Z,93.20
2022-10-20T02:32:52.641Z,93.26
2022-10-20T02:35:21.936Z,93.26
2022-10-20T02:37:48.517Z,93.36
2022-10-20T02:40:15.668Z,93.25
2022-10-20T02:42:43.392Z,93.42
2022-10-20T02:45:10.381Z,93.56
2022-10-20T02:47:37.211Z,93.51
2022-10-20T02:50:04.276Z,93.51
2022-10-20T02:52:30.897Z,93.54
2022-10-20T02:54:57.627Z,93.45
2022-10-20T02:57:24.209Z,93.47
2022-10-20T02:59:50.893Z,93.59
2022-10-20T03:02:17.504Z,93.34
2022-10-20T03:04:44.218Z,93.32
2022-10-20T03:07:11.254Z,93.33
2022-10-20T03:09:37.892Z,93.27
2022-10-20T03:12:04.557Z,93.36
2022-10-20T03:14:31.147Z,93.31
2022-10-20T03:16:57.731Z,93.23
2022-10-20T03:19:24.314Z,93.03
2022-10-20T03:21:50.872Z,93.06
2022-10-20T03:24:17.531Z,92.53
2022-10-20T03:26:44.058Z,90.78
2022-10-20T03:29:10.621Z,89.78
2022-10-20T03:31:37.270Z,90.01
2022-10-20T03:34:03.851Z,89.91
2022-10-20T03:36:30.416Z,90.12
2022-10-20T03:38:57.021Z,89.93
2022-10-20T03:41:23.559Z,90.27
2022-10-20T03:43:50.238Z,90.47
2022-10-20T03:46:16.800Z,89.85
2022-10-20T03:48:43.362Z,90.02
2022-10-20T03:51:12.066Z,90.11
2022-10-20T03:53:38.646Z,90.16
2022-10-20T03:56:09.513Z,90.38
2022-10-20T03:58:36.304Z,90.55
2022-10-20T04:01:03.463Z,90.84
2022-10-20T04:03:30.161Z,90.98
2022-10-20T04:05:56.761Z,91.08
2022-10-20T04:08:23.337Z,91.25
2022-10-20T04:10:49.881Z,91.46
2022-10-20T04:13:16.517Z,91.80
2022-10-20T04:15:43.041Z,91.76
2022-10-20T04:18:09.649Z,92.10
2022-10-20T04:20:37.423Z,92.11
2022-10-20T04:23:05.976Z,92.33
2022-10-20T04:25:32.561Z,92.20
2022-10-20T04:27:59.973Z,92.56
2022-10-20T04:30:26.599Z,92.50
2022-10-20T04:32:53.133Z,92.57
2022-10-20T04:35:19.708Z,92.77
2022-10-20T04:37:46.248Z,93.50
2022-10-20T04:40:12.810Z,93.92
2022-10-20T04:42:39.387Z,93.55
2022-10-20T04:45:06.246Z,93.46
2022-10-20T04:47:33.991Z,93.37
2022-10-20T04:50:00.731Z,93.45
2022-10-20T04:52:28.450Z,93.43
2022-10-20T04:54:55.041Z,93.52
2022-10-20T04:57:21.603Z,93.80
2022-10-20T04:59:48.144Z,93.98
2022-10-20T05:02:14.675Z,94.52
2022-10-20T05:04:41.238Z,94.61
2022-10-20T05:07:07.796Z,94.64
2022-10-20T05:09:34.436Z,94.75
2022-10-20T05:12:01.077Z,94.98
2022-10-20T05:14:27.731Z,95.21
2022-10-20T05:16:54.300Z,95.48
2022-10-20T05:19:20.895Z,95.87
2022-10-20T05:21:47.500Z,95.51
2022-10-20T05:24:18.260Z,95.51
2022-10-20T05:26:47.832Z,95.69
2022-10-20T05:29:14.465Z,95.64
2022-10-20T05:31:42.187Z,95.69
2022-10-20T05:34:09.437Z,95.72
2022-10-20T05:36:36.062Z,95.94
2022-10-20T05:39:02.900Z,96.11
2022-10-20T05:41:33.391Z,96.11
2022-10-20T05:44:04.584Z,96.13
2022-10-20T05:46:32.458Z,96.16
2022-10-20T05:48:59.930Z,96.19
2022-10-20T05:51:28.526Z,96.23
2022-10-20T05:53:55.563Z,96.38
2022-10-20T05:56:22.542Z,96.58
2022-10-20T05:58:49.530Z,96.35
2022-10-20T06:01:24.226Z,96.21
2022-10-20T06:03:52.321Z,95.93
2022-10-20T06:06:19.532Z,96.08
2022-10-20T06:08:46.580Z,95.92
2022-10-20T06:11:13.702Z,95.98
2022-10-20T06:13:40.412Z,95.89
2022-10-20T06:16:09.167Z,95.66
2022-10-20T06:18:38.744Z,95.39
2022-10-20T06:21:10.023Z,95.43
2022-10-20T06:23:36.607Z,95.02
2022-10-20T06:26:04.940Z,94.73
2022-10-20T06:28:32.412Z,94.34
2022-10-20T06:30:59.674Z,93.63
2022-10-20T06:33:29.260Z,93.54
2022-10-20T06:36:01.735Z,92.74
2022-10-20T06:38:28.621Z,92.57
2022-10-20T06:40:55.322Z,91.17
2022-10-20T06:43:22.099Z,91.64
2022-10-20T06:45:55.730Z,91.82
2022-10-20T06:48:22.450Z,90.85
2022-10-20T06:50:49.098Z,90.63
2022-10-20T06:53:15.830Z,90.88
2022-10-20T06:55:42.411Z,90.26
2022-10-20T06:58:08.973Z,90.54
2022-10-20T07:00:35.540Z,90.67
2022-10-20T07:03:02.190Z,90.50
2022-10-20T07:05:30.038Z,90.31
2022-10-20T07:07:56.581Z,88.32
2022-10-20T07:10:23.120Z,86.87
2022-10-20T07:12:49.756Z,83.69
2022-10-20T07:15:16.404Z,83.07
2022-10-20T07:17:42.971Z,84.22
2022-10-20T07:20:10.067Z,85.27
2022-10-20T07:22:38.562Z,84.98
2022-10-20T07:25:06.994Z,85.83
2022-10-20T07:27:34.145Z,86.00
2022-10-20T07:30:00.784Z,86.04
2022-10-20T07:32:27.453Z,85.01
2022-10-20T07:34:54.285Z,82.72
2022-10-20T07:37:20.913Z,83.90
2022-10-20T07:39:47.529Z,84.03
2022-10-20T07:42:14.168Z,83.47
2022-10-20T07:44:40.879Z,81.32
2022-10-20T07:47:07.441Z,81.71
2022-10-20T07:49:49.464Z,82.76
2022-10-20T07:52:16.719Z,83.14
2022-10-20T07:54:43.384Z,83.23
2022-10-20T07:57:10.054Z,82.72
2022-10-20T07:59:36.665Z,78.45
2022-10-20T08:02:03.967Z,80.14
2022-10-20T08:04:31.697Z,80.67
2022-10-20T08:06:59.406Z,81.21
2022-10-20T08:09:25.999Z,81.48
2022-10-20T08:11:55.394Z,81.57
2022-10-20T08:14:22.846Z,74.12
2022-10-20T08:19:37.148Z,68.62
2022-10-20T08:22:03.933Z,69.70
2022-10-20T08:24:30.529Z,69.44
2022-10-20T08:26:57.107Z,71.75
2022-10-20T08:29:23.665Z,70.79
2022-10-20T08:31:50.200Z,71.34
2022-10-20T08:34:16.793Z,70.21
2022-10-20T08:36:43.391Z,73.14
2022-10-20T08:39:09.962Z,73.07
2022-10-20T08:42:02.902Z,72.75
2022-10-20T08:44:27.434Z,71.06
2022-10-20T08:46:54.378Z,71.73
2022-10-20T08:49:32.939Z,72.77
2022-10-20T08:51:59.996Z,71.34
2022-10-20T08:54:26.576Z,71.10
2022-10-20T08:56:53.329Z,71.85
2022-10-20T08:59:28.555Z,72.75
2022-10-20T09:01:56.105Z,72.37
2022-10-20T09:04:25.158Z,72.70
2022-10-20T09:07:00.458Z,70.98
2022-10-20T09:09:28.986Z,71.87
2022-10-20T09:11:59.795Z,72.43
2022-10-20T09:14:26.663Z,71.22
2022-10-20T09:17:00.240Z,71.90
2022-10-20T09:19:27.643Z,68.07
2022-10-20T09:22:05.712Z,68.15
2022-10-20T09:24:35.149Z,67.58
2022-10-20T09:27:22.121Z,68.32
2022-10-20T09:29:48.883Z,68.28
2022-10-20T09:35:25.121Z,67.71
2022-10-20T09:37:57.587Z,67.86
2022-10-20T09:40:26.309Z,68.64
2022-10-20T09:42:54.893Z,68.86
2022-10-20T09:45:32.582Z,69.48
2022-10-20T09:48:01.625Z,68.02
2022-10-20T09:50:34.192Z,67.13
2022-10-20T09:53:01.910Z,67.47
2022-10-20T09:55:33.278Z,68.03
2022-10-20T09:58:01.581Z,68.59
2022-10-20T10:00:38.776Z,69.02
2022-10-20T10:03:09.046Z,68.62
2022-10-20T10:05:35.832Z,69.28
2022-10-20T10:08:02.428Z,69.77
2022-10-20T10:10:30.608Z,70.21
2022-10-20T10:13:00.905Z,70.02
2022-10-20T10:15:30.126Z,70.26
2022-10-20T10:17:57.370Z,70.78
2022-10-20T10:20:33.723Z,71.62
2022-10-20T10:23:17.124Z,71.76
2022-10-20T10:25:43.710Z,72.37
2022-10-20T10:28:28.663Z,72.34
2022-10-20T10:31:18.617Z,71.14
2022-10-20T10:33:45.488Z,72.39
2022-10-20T10:36:18.656Z,72.04
2022-10-20T10:38:45.201Z,71.10
2022-10-20T10:41:30.162Z,72.04
2022-10-20T10:44:10.309Z,71.61
2022-10-20T10:46:41.010Z,71.44
2022-10-20T10:49:07.636Z,71.05
2022-10-20T10:51:52.767Z,70.93
2022-10-20T10:54:19.499Z,71.74
2022-10-20T10:56:50.911Z,70.53
2022-10-20T10:59:17.460Z,69.96
2022-10-20T11:01:58.975Z,69.64
2022-10-20T11:04:28.664Z,69.31
2022-10-20T11:07:15.963Z,69.48
2022-10-20T11:09:48.932Z,70.14
2022-10-20T11:12:34.437Z,70.08
2022-10-20T11:15:09.923Z,70.07
2022-10-20T11:18:02.553Z,70.29
2022-10-20T11:20:32.168Z,70.45
2022-10-20T11:23:24.476Z,70.80
2022-10-20T11:26:11.224Z,70.48
2022-10-20T11:28:45.569Z,70.01
2022-10-20T11:31:34.063Z,70.21
2022-10-20T11:34:11.868Z,70.33
2022-10-20T11:36:49.953Z,70.97
2022-10-20T11:39:38.002Z,71.15
2022-10-20T11:42:18.796Z,70.42
2022-10-20T11:44:46.465Z,69.79
2022-10-20T11:47:15.149Z,70.98
2022-10-20T11:49:41.998Z,70.87
2022-10-20T11:52:27.480Z,70.40
2022-10-20T11:55:12.487Z,69.70
2022-10-20T11:57:45.202Z,69.64
2022-10-20T12:00:30.294Z,70.21
2022-10-20T12:03:15.448Z,70.13
2022-10-20T12:05:51.004Z,69.51
2022-10-20T12:08:30.283Z,70.33
2022-10-20T12:11:29.789Z,70.65
2022-10-20T12:14:14.587Z,70.89
2022-10-20T12:16:59.464Z,70.73
2022-10-20T12:19:31.054Z,71.41
2022-10-20T12:22:15.995Z,70.56
2022-10-20T12:25:02.505Z,69.41
2022-10-20T12:27:30.516Z,70.01
2022-10-20T12:29:58.623Z,69.62
2022-10-20T12:32:35.061Z,67.52
2022-10-20T12:35:10.845Z,68.26
2022-10-20T12:37:40.234Z,68.01
2022-10-20T12:40:09.058Z,67.55
2022-10-20T12:42:40.188Z,67.73
2022-10-20T12:45:08.262Z,68.49
2022-10-20T12:47:37.017Z,68.80
2022-10-20T12:50:22.492Z,69.20
2022-10-20T12:52:49.186Z,69.12
2022-10-20T12:55:18.539Z,69.05
2022-10-20T12:57:45.905Z,69.45
2022-10-20T13:00:22.031Z,69.64
2022-10-20T13:02:55.774Z,69.80
2022-10-20T13:05:41.850Z,68.34
2022-10-20T13:08:18.024Z,67.65
2022-10-20T13:10:44.787Z,66.86
2022-10-20T13:13:11.360Z,66.72
2022-10-20T13:15:43.679Z,67.40
2022-10-20T13:18:13.351Z,66.18
2022-10-20T13:20:45.960Z,67.24
2022-10-20T13:23:13.959Z,67.17
2022-10-20T13:25:43.861Z,67.89
2022-10-20T13:28:13.280Z,66.91
2022-10-20T13:30:58.268Z,67.50
2022-10-20T13:33:38.826Z,68.92
2022-10-20T13:36:33.166Z,68.58
2022-10-20T13:39:08.448Z,69.37
2022-10-20T13:41:43.438Z,69.49
2022-10-20T13:44:35.846Z,69.05
2022-10-20T13:47:21.022Z,69.34
2022-10-20T13:49:59.664Z,69.72
2022-10-20T13:52:29.224Z,68.15
2022-10-20T13:54:56.611Z,68.24
2022-10-20T13:57:28.182Z,69.53
2022-10-20T13:59:55.950Z,68.27
2022-10-20T14:02:32.952Z,67.98
2022-10-20T14:05:07.591Z,68.88
2022-10-20T14:07:43.789Z,69.05
2022-10-20T14:10:28.583Z,69.32
2022-10-20T14:12:55.881Z,69.50
2022-10-20T14:15:30.433Z,69.95
2022-10-20T14:18:07.393Z,69.61
2022-10-20T14:20:37.424Z,70.35
2022-10-20T14:23:04.726Z,70.81
2022-10-20T14:25:32.186Z,71.75
2022-10-20T14:27:59.340Z,71.77
2022-10-20T14:30:26.676Z,72.92
2022-10-20T14:32:53.787Z,73.23
2022-10-20T14:35:43.623Z,73.80
2022-10-20T14:38:16.024Z,73.43
2022-10-20T14:40:48.767Z,73.81
2022-10-20T14:43:18.208Z,74.28
2022-10-20T14:45:59.335Z,74.17
2022-10-20T14:48:33.640Z,75.23
2022-10-20T14:51:00.212Z,74.46
2022-10-20T14:53:27.425Z,74.58
2022-10-20T14:55:54.988Z,75.22
2022-10-20T14:58:56.137Z,75.61
2022-10-20T15:01:24.826Z,76.32
2022-10-20T15:06:42.245Z,75.64
2022-10-20T15:09:18.207Z,76.61
2022-10-20T15:11:44.988Z,77.48
2022-10-20T15:14:15.799Z,77.16
2022-10-20T15:16:46.307Z,76.83
2022-10-20T15:19:19.009Z,77.98
2022-10-20T15:21:46.017Z,78.24
2022-10-20T15:24:12.588Z,77.78
2022-10-20T15:26:39.160Z,78.72
2022-10-20T15:29:06.405Z,79.42
2022-10-20T15:31:33.038Z,79.05
2022-10-20T15:33:59.640Z,79.34
2022-10-20T15:36:29.561Z,79.38
2022-10-20T15:38:56.600Z,81.07
2022-10-20T15:41:25.325Z,80.80
2022-10-20T15:43:52.287Z,80.55
2022-10-20T15:46:19.110Z,80.34
2022-10-20T15:48:46.072Z,80.85
2022-10-20T15:51:19.349Z,81.27
2022-10-20T15:53:48.501Z,81.09
2022-10-20T15:56:15.206Z,80.75
2022-10-20T15:58:41.943Z,81.26
2022-10-20T16:01:09.540Z,80.89
2022-10-20T16:03:40.702Z,81.64
2022-10-20T16:06:07.823Z,81.46
2022-10-20T16:08:35.467Z,81.00
2022-10-20T16:11:02.991Z,81.89
2022-10-20T16:13:29.570Z,81.78
2022-10-20T16:15:56.205Z,81.28
2022-10-20T16:18:22.844Z,81.03
2022-10-20T16:20:49.550Z,80.40
2022-10-20T16:23:16.242Z,80.16
2022-10-20T16:25:42.893Z,80.49
2022-10-20T16:28:09.807Z,80.18
2022-10-20T16:30:36.445Z,79.58
2022-10-20T16:33:03.175Z,79.60
2022-10-20T16:35:29.807Z,79.38
2022-10-20T16:37:56.480Z,79.18
2022-10-20T16:40:23.078Z,80.04
2022-10-20T16:42:49.659Z,79.93
2022-10-20T16:45:16.402Z,79.89
2022-10-20T16:47:43.113Z,79.93
2022-10-20T16:50:09.931Z,79.73
2022-10-20T16:52:36.567Z,79.48
2022-10-20T16:55:03.286Z,79.81
2022-10-20T16:57:33.577Z,80.13
2022-10-20T17:00:00.477Z,79.75
2022-10-20T17:02:27.137Z,79.58
2022-10-20T17:04:53.754Z,79.57
2022-10-20T17:07:20.414Z,79.52
2022-10-20T17:09:47.048Z,79.37
2022-10-20T17:12:13.968Z,79.72
2022-10-20T17:14:43.642Z,79.75
2022-10-20T17:17:10.586Z,79.70
2022-10-20T17:19:37.213Z,80.03
2022-10-20T17:22:03.832Z,80.12
2022-10-20T17:24:30.450Z,79.79
2022-10-20T17:26:57.049Z,80.22
2022-10-20T17:29:25.956Z,79.74
2022-10-20T17:31:52.964Z,79.76
2022-10-20T17:34:19.627Z,79.96
2022-10-20T17:36:46.220Z,80.02
2022-10-20T17:39:14.168Z,80.10
2022-10-20T17:41:40.814Z,79.82
2022-10-20T17:44:08.448Z,79.77
2022-10-20T17:46:35.399Z,79.94
2022-10-20T17:49:02.252Z,80.30
2022-10-20T17:51:31.959Z,80.42
2022-10-20T17:54:01.180Z,80.20
2022-10-20T17:56:32.419Z,80.43
2022-10-20T17:58:59.854Z,80.27
2022-10-20T18:01:28.586Z,80.42
2022-10-20T18:04:05.612Z,80.67
2022-10-20T18:06:34.614Z,80.56
2022-10-20T18:09:04.048Z,80.47
2022-10-20T18:11:31.663Z,80.43
2022-10-20T18:14:00.011Z,80.79
2022-10-20T18:16:27.687Z,80.67
2022-10-20T18:21:25.403Z,81.16
2022-10-20T18:23:55.946Z,80.99
2022-10-20T18:26:22.734Z,81.14
2022-10-20T18:28:50.093Z,80.94
2022-10-20T18:31:18.423Z,81.41
2022-10-20T18:33:45.371Z,81.33
2022-10-20T18:36:13.200Z,80.91
2022-10-20T18:38:40.847Z,80.85
2022-10-20T18:41:11.002Z,81.42
2022-10-20T18:43:38.311Z,81.06
2022-10-20T18:46:05.655Z,80.73
2022-10-20T18:48:34.350Z,81.08
2022-10-20T18:51:01.725Z,81.12
2022-10-20T18:53:29.457Z,81.21
2022-10-20T18:56:00.044Z,81.10
2022-10-20T18:58:27.382Z,81.48
2022-10-20T19:00:58.026Z,81.10
2022-10-20T19:03:24.871Z,80.98
2022-10-20T19:05:57.105Z,81.20
2022-10-20T19:08:23.728Z,81.15
2022-10-20T19:10:50.338Z,81.04
2022-10-20T19:13:17.121Z,81.21
2022-10-20T19:15:43.690Z,81.39
2022-10-20T19:18:10.419Z,80.95
2022-10-20T19:20:37.075Z,81.02
2022-10-20T19:23:03.671Z,81.02
2022-10-20T19:25:30.292Z,81.26
2022-10-20T19:27:58.337Z,80.70
2022-10-20T19:30:25.024Z,81.04
2022-10-20T19:32:52.976Z,80.48
2022-10-20T19:35:19.629Z,80.71
2022-10-20T19:37:46.292Z,80.96
2022-10-20T19:40:12.952Z,81.00
2022-10-20T19:42:39.903Z,80.69
2022-10-20T19:45:06.869Z,80.82
2022-10-20T19:47:33.442Z,80.67
2022-10-20T19:50:00.045Z,81.29
2022-10-20T19:52:26.689Z,80.82
2022-10-20T19:54:53.429Z,81.17
2022-10-20T19:57:20.140Z,81.70
2022-10-20T19:59:46.839Z,81.69
2022-10-20T20:02:13.471Z,81.69
2022-10-20T20:04:40.521Z,82.64
2022-10-20T20:07:07.337Z,81.88
2022-10-20T20:09:34.062Z,81.56
2022-10-20T20:12:00.680Z,81.89
2022-10-20T20:14:27.311Z,82.25
2022-10-20T20:16:53.904Z,82.40
2022-10-20T20:19:20.596Z,82.21
2022-10-20T20:21:47.314Z,82.30
2022-10-20T20:24:14.717Z,81.57
2022-10-20T20:26:41.477Z,81.24
2022-10-20T20:29:08.216Z,81.33
2022-10-20T20:31:34.888Z,81.32
2022-10-20T20:34:01.696Z,81.50
2022-10-20T20:36:28.505Z,81.76
2022-10-20T20:38:57.428Z,80.94
2022-10-20T20:41:26.125Z,80.32
2022-10-20T20:43:52.705Z,80.56
2022-10-20T20:46:20.650Z,80.19
2022-10-20T20:48:47.379Z,80.06
2022-10-20T20:51:14.306Z,80.27
2022-10-20T20:53:41.097Z,80.34
2022-10-20T20:56:11.826Z,79.87
2022-10-20T20:58:38.727Z,79.94
2022-10-20T21:01:09.908Z,80.26
2022-10-20T21:03:36.838Z,80.14
2022-10-20T21:06:10.844Z,79.82
2022-10-20T21:08:39.079Z,80.05
2022-10-20T21:11:10.479Z,80.35
2022-10-20T21:13:37.490Z,80.20
2022-10-20T21:16:14.488Z,79.46
2022-10-20T21:18:42.205Z,79.71
2022-10-20T21:21:08.851Z,79.67
2022-10-20T21:23:35.658Z,79.77
2022-10-20T21:26:02.307Z,80.19
2022-10-20T21:28:28.908Z,79.30
2022-10-20T21:30:58.735Z,79.44
2022-10-20T21:33:27.840Z,79.59
2022-10-20T21:35:58.881Z,79.59
2022-10-20T21:38:29.240Z,79.66
2022-10-20T21:41:00.959Z,79.83
2022-10-20T21:43:28.866Z,79.91
2022-10-20T21:45:55.413Z,79.82
2022-10-20T21:48:22.049Z,79.88
2022-10-20T21:50:48.746Z,80.20
2022-10-20T21:53:16.073Z,80.21
2022-10-20T21:55:42.712Z,80.15
2022-10-20T21:58:09.308Z,80.36
2022-10-20T22:00:35.887Z,80.70
2022-10-20T22:03:02.589Z,80.51
2022-10-20T22:05:29.248Z,80.41
2022-10-20T22:07:55.800Z,80.30
2022-10-20T22:10:22.642Z,79.97
2022-10-20T22:12:49.369Z,79.98
2022-10-20T22:15:16.067Z,79.85
2022-10-20T22:17:42.737Z,80.17
2022-10-20T22:20:09.738Z,80.26
2022-10-20T22:22:36.501Z,80.19
2022-10-20T22:25:03.472Z,80.11
2022-10-20T22:27:31.796Z,80.05
2022-10-20T22:30:09.302Z,80.17
2022-10-20T22:32:36.271Z,80.48
2022-10-20T22:35:03.178Z,80.12
2022-10-20T22:37:29.995Z,80.42
2022-10-20T22:39:56.615Z,80.47
2022-10-20T22:42:24.883Z,80.19
2022-10-20T22:44:51.839Z,80.68
2022-10-20T22:47:18.440Z,80.54
2022-10-20T22:49:45.044Z,80.61
2022-10-20T22:52:11.802Z,80.82
2022-10-20T22:54:38.549Z,80.70
2022-10-20T22:57:05.101Z,80.77
2022-10-20T22:59:31.783Z,80.73
2022-10-20T23:01:58.449Z,80.67
2022-10-20T23:04:25.058Z,80.37
2022-10-20T23:06:51.669Z,80.81
2022-10-20T23:09:18.384Z,80.51
2022-10-20T23:11:45.030Z,81.18
2022-10-20T23:14:11.580Z,81.90
2022-10-20T23:16:38.227Z,81.79
2022-10-20T23:19:04.862Z,81.64
2022-10-20T23:21:31.586Z,81.77
2022-10-20T23:23:58.335Z,81.92
2022-10-20T23:26:24.941Z,82.67
2022-10-20T23:28:51.577Z,82.48
2022-10-20T23:31:19.635Z,81.53
2022-10-20T23:33:47.066Z,81.83
2022-10-20T23:36:14.575Z,81.75
2022-10-20T23:38:41.995Z,81.85
2022-10-20T23:41:08.873Z,82.18
2022-10-20T23:46:07.902Z,82.38
2022-10-20T23:48:34.912Z,82.87
2022-10-20T23:51:01.684Z,82.38
2022-10-20T23:53:28.257Z,83.26
2022-10-20T23:55:54.972Z,83.31
2022-10-20T23:58:23.167Z,84.84
